Aviation Digital Data Service (ADDS)

Output produced by METARs form (1207 UTC 22 March 2019)
found at http://www.aviationweather.gov/metar/data/
 
Forecast for: LIRA (CIAMPINO(IT-AFB/, IT)
Text: TAF LIRA 221100Z 2212/2312 VRB06KT CAVOK
Forecast period: 1200 UTC 22 March 2019 to 1200 UTC 23 March 2019
Forecast type: FROM: standard forecast or significant change
Winds: variable direction winds at 7 MPH (6 knots; 3.1 m/s)
Visibility: 6 or more miles 10+ km)
Ceiling: unknown
Clouds: missing
Weather: NSW  (no significant weather)